sensor_id;sensor_type;location;lat;lon;timestamp;P1;durP1;ratioP1;P2;durP2;ratioP2
26407;SDS011;14583;43.604;1.364;2023-10-31T00:02:16;9.00;;;5.85;;
26407;SDS011;14583;43.604;1.364;2023-10-31T00:04:42;9.48;;;6.28;;
26407;SDS011;14583;43.604;1.364;2023-10-31T00:07:07;8.80;;;6.07;;
26407;SDS011;14583;43.604;1.364;2023-10-31T00:09:33;10.82;;;5.95;;
26407;SDS011;14583;43.604;1.364;2023-10-31T00:11:59;11.40;;;6.40;;
26407;SDS011;14583;43.604;1.364;2023-10-31T00:14:25;10.52;;;6.07;;
26407;SDS011;14583;43.604;1.364;2023-10-31T00:16:50;10.65;;;5.80;;
26407;SDS011;14583;43.604;1.364;2023-10-31T00:19:17;9.30;;;6.30;;
26407;SDS011;14583;43.604;1.364;2023-10-31T00:21:43;8.70;;;6.50;;
26407;SDS011;14583;43.604;1.364;2023-10-31T00:24:09;11.75;;;6.60;;
26407;SDS011;14583;43.604;1.364;2023-10-31T00:26:35;10.32;;;6.72;;
26407;SDS011;14583;43.604;1.364;2023-10-31T00:29:00;13.35;;;8.13;;
26407;SDS011;14583;43.604;1.364;2023-10-31T00:31:26;17.33;;;8.52;;
26407;SDS011;14583;43.604;1.364;2023-10-31T00:33:51;16.08;;;8.68;;
26407;SDS011;14583;43.604;1.364;2023-10-31T00:36:17;17.83;;;9.95;;
26407;SDS011;14583;43.604;1.364;2023-10-31T00:38:43;20.30;;;10.52;;
26407;SDS011;14583;43.604;1.364;2023-10-31T00:41:08;19.92;;;10.82;;
26407;SDS011;14583;43.604;1.364;2023-10-31T00:43:34;24.67;;;10.80;;
26407;SDS011;14583;43.604;1.364;2023-10-31T00:46:02;19.10;;;10.80;;
26407;SDS011;14583;43.604;1.364;2023-10-31T00:48:28;16.45;;;9.60;;
26407;SDS011;14583;43.604;1.364;2023-10-31T00:50:54;20.52;;;9.95;;
26407;SDS011;14583;43.604;1.364;2023-10-31T00:53:19;15.88;;;9.63;;
26407;SDS011;14583;43.604;1.364;2023-10-31T00:55:45;21.40;;;11.00;;
26407;SDS011;14583;43.604;1.364;2023-10-31T00:58:11;19.90;;;10.10;;
26407;SDS011;14583;43.604;1.364;2023-10-31T01:00:36;18.92;;;10.32;;
26407;SDS011;14583;43.604;1.364;2023-10-31T01:03:02;26.90;;;10.90;;
26407;SDS011;14583;43.604;1.364;2023-10-31T01:05:28;18.63;;;10.95;;
26407;SDS011;14583;43.604;1.364;2023-10-31T01:07:54;19.33;;;11.27;;
26407;SDS011;14583;43.604;1.364;2023-10-31T01:10:20;25.67;;;10.65;;
26407;SDS011;14583;43.604;1.364;2023-10-31T01:12:46;17.90;;;10.15;;
26407;SDS011;14583;43.604;1.364;2023-10-31T01:15:12;22.08;;;10.27;;
26407;SDS011;14583;43.604;1.364;2023-10-31T01:17:37;20.02;;;10.30;;
26407;SDS011;14583;43.604;1.364;2023-10-31T01:20:03;21.50;;;10.35;;
26407;SDS011;14583;43.604;1.364;2023-10-31T01:22:30;22.25;;;10.38;;
26407;SDS011;14583;43.604;1.364;2023-10-31T01:24:56;20.08;;;9.85;;
26407;SDS011;14583;43.604;1.364;2023-10-31T01:27:21;15.45;;;8.05;;
26407;SDS011;14583;43.604;1.364;2023-10-31T01:29:47;16.13;;;7.93;;
26407;SDS011;14583;43.604;1.364;2023-10-31T01:32:13;14.15;;;7.65;;
26407;SDS011;14583;43.604;1.364;2023-10-31T01:34:38;10.57;;;5.90;;
26407;SDS011;14583;43.604;1.364;2023-10-31T01:37:04;10.05;;;5.75;;
26407;SDS011;14583;43.604;1.364;2023-10-31T01:39:30;7.97;;;5.57;;
26407;SDS011;14583;43.604;1.364;2023-10-31T01:41:55;6.75;;;5.07;;
26407;SDS011;14583;43.604;1.364;2023-10-31T01:44:21;7.65;;;4.97;;
26407;SDS011;14583;43.604;1.364;2023-10-31T01:46:47;12.85;;;4.63;;
26407;SDS011;14583;43.604;1.364;2023-10-31T01:49:13;5.60;;;4.45;;
26407;SDS011;14583;43.604;1.364;2023-10-31T01:51:40;9.88;;;4.70;;
26407;SDS011;14583;43.604;1.364;2023-10-31T01:54:06;10.23;;;3.92;;
26407;SDS011;14583;43.604;1.364;2023-10-31T01:56:33;6.15;;;4.40;;
26407;SDS011;14583;43.604;1.364;2023-10-31T01:58:59;5.78;;;3.70;;
26407;SDS011;14583;43.604;1.364;2023-10-31T02:01:25;6.75;;;4.70;;
26407;SDS011;14583;43.604;1.364;2023-10-31T02:03:51;8.35;;;4.10;;
26407;SDS011;14583;43.604;1.364;2023-10-31T02:06:18;8.10;;;3.97;;
26407;SDS011;14583;43.604;1.364;2023-10-31T02:08:44;8.10;;;3.58;;
26407;SDS011;14583;43.604;1.364;2023-10-31T02:11:12;7.85;;;3.30;;
26407;SDS011;14583;43.604;1.364;2023-10-31T02:13:37;9.20;;;3.47;;
26407;SDS011;14583;43.604;1.364;2023-10-31T02:16:03;4.78;;;3.03;;
26407;SDS011;14583;43.604;1.364;2023-10-31T02:18:29;8.43;;;3.85;;
26407;SDS011;14583;43.604;1.364;2023-10-31T02:20:55;6.20;;;3.47;;
26407;SDS011;14583;43.604;1.364;2023-10-31T02:23:20;8.85;;;3.55;;
26407;SDS011;14583;43.604;1.364;2023-10-31T02:25:46;8.75;;;3.30;;
26407;SDS011;14583;43.604;1.364;2023-10-31T02:28:12;6.40;;;2.88;;
26407;SDS011;14583;43.604;1.364;2023-10-31T02:30:37;6.53;;;3.28;;
26407;SDS011;14583;43.604;1.364;2023-10-31T02:33:03;9.48;;;3.47;;
26407;SDS011;14583;43.604;1.364;2023-10-31T02:35:29;9.30;;;3.72;;
26407;SDS011;14583;43.604;1.364;2023-10-31T02:37:54;10.15;;;3.80;;
26407;SDS011;14583;43.604;1.364;2023-10-31T02:40:20;7.32;;;3.10;;
26407;SDS011;14583;43.604;1.364;2023-10-31T02:42:46;10.18;;;2.97;;
26407;SDS011;14583;43.604;1.364;2023-10-31T02:45:12;9.02;;;3.50;;
26407;SDS011;14583;43.604;1.364;2023-10-31T02:47:37;7.80;;;3.20;;
26407;SDS011;14583;43.604;1.364;2023-10-31T02:50:03;9.85;;;2.80;;
26407;SDS011;14583;43.604;1.364;2023-10-31T02:52:29;4.90;;;2.63;;
26407;SDS011;14583;43.604;1.364;2023-10-31T02:54:55;7.57;;;3.20;;
26407;SDS011;14583;43.604;1.364;2023-10-31T02:57:20;6.35;;;2.95;;
26407;SDS011;14583;43.604;1.364;2023-10-31T02:59:46;6.38;;;2.95;;
26407;SDS011;14583;43.604;1.364;2023-10-31T03:02:12;6.47;;;2.78;;
26407;SDS011;14583;43.604;1.364;2023-10-31T03:04:38;8.55;;;3.22;;
26407;SDS011;14583;43.604;1.364;2023-10-31T03:07:03;5.63;;;2.90;;
26407;SDS011;14583;43.604;1.364;2023-10-31T03:09:29;6.38;;;3.20;;
26407;SDS011;14583;43.604;1.364;2023-10-31T03:11:55;9.25;;;3.45;;
26407;SDS011;14583;43.604;1.364;2023-10-31T03:14:20;8.90;;;3.78;;
26407;SDS011;14583;43.604;1.364;2023-10-31T03:16:46;10.10;;;3.55;;
26407;SDS011;14583;43.604;1.364;2023-10-31T03:19:11;10.43;;;3.55;;
26407;SDS011;14583;43.604;1.364;2023-10-31T03:21:37;7.70;;;3.58;;
26407;SDS011;14583;43.604;1.364;2023-10-31T03:24:03;9.65;;;3.15;;
26407;SDS011;14583;43.604;1.364;2023-10-31T03:26:29;7.13;;;2.80;;
26407;SDS011;14583;43.604;1.364;2023-10-31T03:28:55;6.50;;;2.83;;
26407;SDS011;14583;43.604;1.364;2023-10-31T03:31:22;5.05;;;2.25;;
26407;SDS011;14583;43.604;1.364;2023-10-31T03:33:49;7.72;;;2.67;;
26407;SDS011;14583;43.604;1.364;2023-10-31T03:36:15;3.63;;;2.20;;
26407;SDS011;14583;43.604;1.364;2023-10-31T03:38:40;5.97;;;2.60;;
26407;SDS011;14583;43.604;1.364;2023-10-31T03:41:06;6.05;;;2.50;;
26407;SDS011;14583;43.604;1.364;2023-10-31T03:43:33;8.73;;;2.15;;
26407;SDS011;14583;43.604;1.364;2023-10-31T03:45:58;4.28;;;1.90;;
26407;SDS011;14583;43.604;1.364;2023-10-31T03:48:24;6.90;;;2.38;;
26407;SDS011;14583;43.604;1.364;2023-10-31T03:50:50;8.05;;;2.78;;
26407;SDS011;14583;43.604;1.364;2023-10-31T03:53:16;7.07;;;3.03;;
26407;SDS011;14583;43.604;1.364;2023-10-31T03:55:42;5.05;;;2.17;;
26407;SDS011;14583;43.604;1.364;2023-10-31T03:58:07;6.05;;;2.15;;
26407;SDS011;14583;43.604;1.364;2023-10-31T04:00:33;9.35;;;2.78;;
26407;SDS011;14583;43.604;1.364;2023-10-31T04:02:59;6.13;;;2.90;;
26407;SDS011;14583;43.604;1.364;2023-10-31T04:05:24;8.35;;;3.20;;
26407;SDS011;14583;43.604;1.364;2023-10-31T04:07:50;8.73;;;2.90;;
26407;SDS011;14583;43.604;1.364;2023-10-31T04:10:17;4.22;;;2.92;;
26407;SDS011;14583;43.604;1.364;2023-10-31T04:12:43;5.32;;;2.90;;
26407;SDS011;14583;43.604;1.364;2023-10-31T04:15:09;9.45;;;3.90;;
26407;SDS011;14583;43.604;1.364;2023-10-31T04:17:35;7.65;;;3.40;;
26407;SDS011;14583;43.604;1.364;2023-10-31T04:20:01;7.47;;;3.58;;
26407;SDS011;14583;43.604;1.364;2023-10-31T04:22:27;10.85;;;3.40;;
26407;SDS011;14583;43.604;1.364;2023-10-31T04:24:53;12.02;;;3.83;;
26407;SDS011;14583;43.604;1.364;2023-10-31T04:27:18;12.60;;;4.07;;
26407;SDS011;14583;43.604;1.364;2023-10-31T04:29:44;14.10;;;3.80;;
26407;SDS011;14583;43.604;1.364;2023-10-31T04:32:10;9.60;;;4.05;;
26407;SDS011;14583;43.604;1.364;2023-10-31T04:34:36;15.68;;;4.40;;
26407;SDS011;14583;43.604;1.364;2023-10-31T04:37:02;10.75;;;4.07;;
26407;SDS011;14583;43.604;1.364;2023-10-31T04:39:28;13.15;;;4.10;;
26407;SDS011;14583;43.604;1.364;2023-10-31T04:41:53;10.02;;;3.70;;
26407;SDS011;14583;43.604;1.364;2023-10-31T04:44:19;12.38;;;4.90;;
26407;SDS011;14583;43.604;1.364;2023-10-31T04:46:45;8.13;;;4.05;;
26407;SDS011;14583;43.604;1.364;2023-10-31T04:49:10;14.15;;;4.53;;
26407;SDS011;14583;43.604;1.364;2023-10-31T04:51:36;10.82;;;4.25;;
26407;SDS011;14583;43.604;1.364;2023-10-31T04:54:03;13.18;;;4.60;;
26407;SDS011;14583;43.604;1.364;2023-10-31T04:56:29;14.10;;;5.32;;
26407;SDS011;14583;43.604;1.364;2023-10-31T04:58:54;18.63;;;5.07;;
26407;SDS011;14583;43.604;1.364;2023-10-31T05:01:20;16.65;;;5.50;;
26407;SDS011;14583;43.604;1.364;2023-10-31T05:03:46;11.73;;;4.57;;
26407;SDS011;14583;43.604;1.364;2023-10-31T05:06:11;15.82;;;6.07;;
26407;SDS011;14583;43.604;1.364;2023-10-31T05:08:37;12.63;;;5.25;;
26407;SDS011;14583;43.604;1.364;2023-10-31T05:11:03;15.82;;;6.18;;
26407;SDS011;14583;43.604;1.364;2023-10-31T05:13:29;19.40;;;5.85;;
26407;SDS011;14583;43.604;1.364;2023-10-31T05:15:54;14.50;;;5.10;;
26407;SDS011;14583;43.604;1.364;2023-10-31T05:18:20;13.88;;;5.15;;
26407;SDS011;14583;43.604;1.364;2023-10-31T05:20:46;10.00;;;4.75;;
26407;SDS011;14583;43.604;1.364;2023-10-31T05:23:12;11.90;;;5.22;;
26407;SDS011;14583;43.604;1.364;2023-10-31T05:25:38;13.02;;;4.68;;
26407;SDS011;14583;43.604;1.364;2023-10-31T05:28:04;14.20;;;3.80;;
26407;SDS011;14583;43.604;1.364;2023-10-31T05:30:30;11.25;;;3.95;;
26407;SDS011;14583;43.604;1.364;2023-10-31T05:32:56;8.18;;;3.50;;
26407;SDS011;14583;43.604;1.364;2023-10-31T05:35:22;6.68;;;3.40;;
26407;SDS011;14583;43.604;1.364;2023-10-31T05:37:47;10.10;;;5.00;;
26407;SDS011;14583;43.604;1.364;2023-10-31T05:40:14;8.52;;;3.97;;
26407;SDS011;14583;43.604;1.364;2023-10-31T05:42:41;6.53;;;3.40;;
26407;SDS011;14583;43.604;1.364;2023-10-31T05:45:06;12.25;;;3.70;;
26407;SDS011;14583;43.604;1.364;2023-10-31T05:47:32;7.50;;;3.08;;
26407;SDS011;14583;43.604;1.364;2023-10-31T05:49:58;13.05;;;3.90;;
26407;SDS011;14583;43.604;1.364;2023-10-31T05:52:28;9.57;;;3.70;;
26407;SDS011;14583;43.604;1.364;2023-10-31T05:54:55;8.85;;;3.38;;
26407;SDS011;14583;43.604;1.364;2023-10-31T05:57:21;15.80;;;4.28;;
26407;SDS011;14583;43.604;1.364;2023-10-31T05:59:47;10.57;;;3.47;;
26407;SDS011;14583;43.604;1.364;2023-10-31T06:02:13;9.32;;;3.72;;
26407;SDS011;14583;43.604;1.364;2023-10-31T06:04:39;9.20;;;3.13;;
26407;SDS011;14583;43.604;1.364;2023-10-31T06:07:04;7.45;;;2.83;;
26407;SDS011;14583;43.604;1.364;2023-10-31T06:09:30;8.50;;;2.85;;
26407;SDS011;14583;43.604;1.364;2023-10-31T06:11:58;7.60;;;2.80;;
26407;SDS011;14583;43.604;1.364;2023-10-31T06:14:24;7.22;;;3.03;;
26407;SDS011;14583;43.604;1.364;2023-10-31T06:16:50;6.60;;;2.83;;
26407;SDS011;14583;43.604;1.364;2023-10-31T06:19:16;9.77;;;2.92;;
26407;SDS011;14583;43.604;1.364;2023-10-31T06:21:42;10.07;;;2.83;;
26407;SDS011;14583;43.604;1.364;2023-10-31T06:24:08;8.23;;;2.70;;
26407;SDS011;14583;43.604;1.364;2023-10-31T06:26:34;9.07;;;3.30;;
26407;SDS011;14583;43.604;1.364;2023-10-31T06:28:59;12.25;;;3.50;;
26407;SDS011;14583;43.604;1.364;2023-10-31T06:31:25;9.77;;;4.13;;
26407;SDS011;14583;43.604;1.364;2023-10-31T06:33:51;9.10;;;3.30;;
26407;SDS011;14583;43.604;1.364;2023-10-31T06:36:16;6.07;;;3.35;;
26407;SDS011;14583;43.604;1.364;2023-10-31T06:38:42;6.45;;;3.28;;
26407;SDS011;14583;43.604;1.364;2023-10-31T06:41:08;6.43;;;3.47;;
26407;SDS011;14583;43.604;1.364;2023-10-31T06:43:33;9.05;;;3.80;;
26407;SDS011;14583;43.604;1.364;2023-10-31T06:45:59;12.00;;;3.70;;
26407;SDS011;14583;43.604;1.364;2023-10-31T06:48:27;9.27;;;4.35;;
26407;SDS011;14583;43.604;1.364;2023-10-31T06:50:53;5.28;;;3.22;;
26407;SDS011;14583;43.604;1.364;2023-10-31T06:53:18;9.68;;;4.05;;
26407;SDS011;14583;43.604;1.364;2023-10-31T06:55:44;10.60;;;4.65;;
26407;SDS011;14583;43.604;1.364;2023-10-31T06:58:10;8.55;;;3.70;;
26407;SDS011;14583;43.604;1.364;2023-10-31T07:00:36;10.00;;;3.53;;
26407;SDS011;14583;43.604;1.364;2023-10-31T07:03:02;10.75;;;3.53;;
26407;SDS011;14583;43.604;1.364;2023-10-31T07:05:33;4.00;;;2.90;;
26407;SDS011;14583;43.604;1.364;2023-10-31T07:08:02;4.90;;;2.85;;
26407;SDS011;14583;43.604;1.364;2023-10-31T07:10:28;8.25;;;3.22;;
26407;SDS011;14583;43.604;1.364;2023-10-31T07:12:54;5.70;;;2.80;;
26407;SDS011;14583;43.604;1.364;2023-10-31T07:15:20;7.18;;;3.20;;
26407;SDS011;14583;43.604;1.364;2023-10-31T07:17:46;6.00;;;2.90;;
26407;SDS011;14583;43.604;1.364;2023-10-31T07:20:12;7.35;;;3.17;;
26407;SDS011;14583;43.604;1.364;2023-10-31T07:22:39;7.95;;;2.90;;
26407;SDS011;14583;43.604;1.364;2023-10-31T07:25:05;5.15;;;2.20;;
26407;SDS011;14583;43.604;1.364;2023-10-31T07:27:31;10.65;;;2.60;;
26407;SDS011;14583;43.604;1.364;2023-10-31T07:29:57;8.25;;;2.45;;
26407;SDS011;14583;43.604;1.364;2023-10-31T07:32:23;4.45;;;2.40;;
26407;SDS011;14583;43.604;1.364;2023-10-31T07:34:49;7.15;;;2.70;;
26407;SDS011;14583;43.604;1.364;2023-10-31T07:37:16;5.40;;;2.30;;
26407;SDS011;14583;43.604;1.364;2023-10-31T07:39:42;5.95;;;2.63;;
26407;SDS011;14583;43.604;1.364;2023-10-31T07:42:07;5.95;;;3.05;;
26407;SDS011;14583;43.604;1.364;2023-10-31T07:44:33;7.50;;;2.60;;
26407;SDS011;14583;43.604;1.364;2023-10-31T07:46:59;7.32;;;2.50;;
26407;SDS011;14583;43.604;1.364;2023-10-31T07:49:25;4.95;;;2.47;;
26407;SDS011;14583;43.604;1.364;2023-10-31T07:51:51;8.95;;;2.90;;
26407;SDS011;14583;43.604;1.364;2023-10-31T07:54:16;7.43;;;2.95;;
26407;SDS011;14583;43.604;1.364;2023-10-31T07:56:42;10.75;;;2.90;;
26407;SDS011;14583;43.604;1.364;2023-10-31T07:59:08;6.82;;;2.90;;
26407;SDS011;14583;43.604;1.364;2023-10-31T08:01:34;7.13;;;2.63;;
26407;SDS011;14583;43.604;1.364;2023-10-31T08:04:00;6.07;;;2.35;;
26407;SDS011;14583;43.604;1.364;2023-10-31T08:06:26;5.10;;;2.60;;
26407;SDS011;14583;43.604;1.364;2023-10-31T08:08:51;7.78;;;2.50;;
26407;SDS011;14583;43.604;1.364;2023-10-31T08:11:17;7.85;;;2.88;;
26407;SDS011;14583;43.604;1.364;2023-10-31T08:13:43;8.05;;;2.40;;
26407;SDS011;14583;43.604;1.364;2023-10-31T08:16:09;5.78;;;2.92;;
26407;SDS011;14583;43.604;1.364;2023-10-31T08:18:35;3.67;;;2.25;;
26407;SDS011;14583;43.604;1.364;2023-10-31T08:21:03;11.88;;;3.00;;
26407;SDS011;14583;43.604;1.364;2023-10-31T08:23:29;4.47;;;2.00;;
26407;SDS011;14583;43.604;1.364;2023-10-31T08:25:55;9.35;;;2.22;;
26407;SDS011;14583;43.604;1.364;2023-10-31T08:28:21;4.65;;;2.03;;
26407;SDS011;14583;43.604;1.364;2023-10-31T08:30:47;5.35;;;2.28;;
26407;SDS011;14583;43.604;1.364;2023-10-31T08:33:12;6.05;;;1.80;;
26407;SDS011;14583;43.604;1.364;2023-10-31T08:35:39;6.65;;;2.20;;
26407;SDS011;14583;43.604;1.364;2023-10-31T08:38:04;7.53;;;1.88;;
26407;SDS011;14583;43.604;1.364;2023-10-31T08:40:30;4.78;;;1.83;;
26407;SDS011;14583;43.604;1.364;2023-10-31T08:42:56;3.25;;;1.35;;
26407;SDS011;14583;43.604;1.364;2023-10-31T08:45:22;7.22;;;1.63;;
26407;SDS011;14583;43.604;1.364;2023-10-31T08:47:47;4.65;;;1.50;;
26407;SDS011;14583;43.604;1.364;2023-10-31T08:50:13;9.13;;;1.48;;
26407;SDS011;14583;43.604;1.364;2023-10-31T08:52:39;5.65;;;1.40;;
26407;SDS011;14583;43.604;1.364;2023-10-31T08:55:05;7.35;;;1.55;;
26407;SDS011;14583;43.604;1.364;2023-10-31T08:57:31;5.03;;;1.50;;
26407;SDS011;14583;43.604;1.364;2023-10-31T08:59:58;7.75;;;1.30;;
26407;SDS011;14583;43.604;1.364;2023-10-31T09:02:25;8.93;;;2.10;;
26407;SDS011;14583;43.604;1.364;2023-10-31T09:04:50;7.13;;;1.60;;
26407;SDS011;14583;43.604;1.364;2023-10-31T09:07:16;5.07;;;1.48;;
26407;SDS011;14583;43.604;1.364;2023-10-31T09:09:42;6.72;;;1.85;;
26407;SDS011;14583;43.604;1.364;2023-10-31T09:12:07;5.28;;;1.50;;
26407;SDS011;14583;43.604;1.364;2023-10-31T09:14:34;10.02;;;1.65;;
26407;SDS011;14583;43.604;1.364;2023-10-31T09:17:00;10.60;;;1.75;;
26407;SDS011;14583;43.604;1.364;2023-10-31T09:19:26;6.78;;;1.50;;
26407;SDS011;14583;43.604;1.364;2023-10-31T09:21:54;6.65;;;1.50;;
26407;SDS011;14583;43.604;1.364;2023-10-31T09:24:20;6.15;;;1.63;;
26407;SDS011;14583;43.604;1.364;2023-10-31T09:26:46;8.07;;;1.50;;
26407;SDS011;14583;43.604;1.364;2023-10-31T09:29:12;7.13;;;2.08;;
26407;SDS011;14583;43.604;1.364;2023-10-31T09:31:38;10.75;;;1.52;;
26407;SDS011;14583;43.604;1.364;2023-10-31T09:34:03;10.82;;;1.58;;
26407;SDS011;14583;43.604;1.364;2023-10-31T09:36:31;6.00;;;1.52;;
26407;SDS011;14583;43.604;1.364;2023-10-31T09:38:59;9.73;;;2.25;;
26407;SDS011;14583;43.604;1.364;2023-10-31T09:41:25;4.97;;;1.60;;
26407;SDS011;14583;43.604;1.364;2023-10-31T09:43:50;6.68;;;1.75;;
26407;SDS011;14583;43.604;1.364;2023-10-31T09:46:16;6.85;;;1.60;;
26407;SDS011;14583;43.604;1.364;2023-10-31T09:48:44;12.10;;;1.77;;
26407;SDS011;14583;43.604;1.364;2023-10-31T09:51:10;6.32;;;1.50;;
26407;SDS011;14583;43.604;1.364;2023-10-31T09:53:37;8.13;;;1.75;;
26407;SDS011;14583;43.604;1.364;2023-10-31T09:56:06;8.63;;;1.65;;
26407;SDS011;14583;43.604;1.364;2023-10-31T09:58:32;6.45;;;1.60;;
26407;SDS011;14583;43.604;1.364;2023-10-31T10:00:59;13.70;;;2.55;;
26407;SDS011;14583;43.604;1.364;2023-10-31T10:03:25;9.02;;;1.85;;
26407;SDS011;14583;43.604;1.364;2023-10-31T10:05:52;4.95;;;1.80;;
26407;SDS011;14583;43.604;1.364;2023-10-31T10:08:18;4.97;;;1.35;;
26407;SDS011;14583;43.604;1.364;2023-10-31T10:10:44;7.13;;;1.80;;
26407;SDS011;14583;43.604;1.364;2023-10-31T10:13:10;12.20;;;1.90;;
26407;SDS011;14583;43.604;1.364;2023-10-31T10:15:44;8.65;;;1.58;;
26407;SDS011;14583;43.604;1.364;2023-10-31T10:18:10;9.43;;;1.92;;
26407;SDS011;14583;43.604;1.364;2023-10-31T10:20:58;6.97;;;1.65;;
26407;SDS011;14583;43.604;1.364;2023-10-31T10:23:28;7.95;;;2.08;;
26407;SDS011;14583;43.604;1.364;2023-10-31T10:25:55;12.05;;;2.60;;
26407;SDS011;14583;43.604;1.364;2023-10-31T10:28:22;8.90;;;2.42;;
26407;SDS011;14583;43.604;1.364;2023-10-31T10:30:50;10.05;;;2.45;;
26407;SDS011;14583;43.604;1.364;2023-10-31T10:33:17;10.50;;;2.13;;
26407;SDS011;14583;43.604;1.364;2023-10-31T10:35:43;11.20;;;2.20;;
26407;SDS011;14583;43.604;1.364;2023-10-31T10:38:10;8.77;;;1.90;;
26407;SDS011;14583;43.604;1.364;2023-10-31T10:40:41;7.28;;;1.98;;
26407;SDS011;14583;43.604;1.364;2023-10-31T10:43:13;9.55;;;2.00;;
26407;SDS011;14583;43.604;1.364;2023-10-31T10:45:46;12.27;;;2.22;;
26407;SDS011;14583;43.604;1.364;2023-10-31T10:48:19;16.50;;;2.22;;
26407;SDS011;14583;43.604;1.364;2023-10-31T10:50:46;11.05;;;1.88;;
26407;SDS011;14583;43.604;1.364;2023-10-31T10:53:23;7.20;;;1.67;;
26407;SDS011;14583;43.604;1.364;2023-10-31T10:55:55;8.27;;;1.73;;
26407;SDS011;14583;43.604;1.364;2023-10-31T11:01:13;8.88;;;2.50;;
26407;SDS011;14583;43.604;1.364;2023-10-31T11:03:39;10.38;;;1.75;;
26407;SDS011;14583;43.604;1.364;2023-10-31T11:06:05;6.53;;;1.52;;
26407;SDS011;14583;43.604;1.364;2023-10-31T11:08:32;10.93;;;1.70;;
26407;SDS011;14583;43.604;1.364;2023-10-31T11:10:58;7.72;;;1.73;;
26407;SDS011;14583;43.604;1.364;2023-10-31T11:13:24;9.60;;;1.95;;
26407;SDS011;14583;43.604;1.364;2023-10-31T11:15:53;10.32;;;1.98;;
26407;SDS011;14583;43.604;1.364;2023-10-31T11:18:22;10.48;;;1.77;;
26407;SDS011;14583;43.604;1.364;2023-10-31T11:20:50;12.93;;;2.05;;
26407;SDS011;14583;43.604;1.364;2023-10-31T11:23:16;17.42;;;2.75;;
26407;SDS011;14583;43.604;1.364;2023-10-31T11:25:43;9.27;;;1.88;;
26407;SDS011;14583;43.604;1.364;2023-10-31T11:28:10;12.25;;;1.98;;
26407;SDS011;14583;43.604;1.364;2023-10-31T11:30:37;6.88;;;1.67;;
26407;SDS011;14583;43.604;1.364;2023-10-31T11:33:03;6.95;;;1.50;;
26407;SDS011;14583;43.604;1.364;2023-10-31T11:35:30;9.23;;;1.40;;
26407;SDS011;14583;43.604;1.364;2023-10-31T11:40:28;10.82;;;1.77;;
26407;SDS011;14583;43.604;1.364;2023-10-31T11:42:58;11.70;;;1.85;;
26407;SDS011;14583;43.604;1.364;2023-10-31T11:45:32;10.18;;;2.10;;
26407;SDS011;14583;43.604;1.364;2023-10-31T11:48:08;10.82;;;1.77;;
26407;SDS011;14583;43.604;1.364;2023-10-31T11:50:36;11.50;;;2.15;;
26407;SDS011;14583;43.604;1.364;2023-10-31T11:55:35;12.18;;;2.33;;
26407;SDS011;14583;43.604;1.364;2023-10-31T12:01:02;10.60;;;2.00;;
26407;SDS011;14583;43.604;1.364;2023-10-31T12:03:36;10.13;;;2.55;;
26407;SDS011;14583;43.604;1.364;2023-10-31T12:06:04;9.23;;;2.05;;
26407;SDS011;14583;43.604;1.364;2023-10-31T12:08:31;11.23;;;2.17;;
26407;SDS011;14583;43.604;1.364;2023-10-31T12:13:34;11.32;;;2.22;;
26407;SDS011;14583;43.604;1.364;2023-10-31T12:16:07;11.15;;;2.22;;
26407;SDS011;14583;43.604;1.364;2023-10-31T12:18:35;15.43;;;2.17;;
26407;SDS011;14583;43.604;1.364;2023-10-31T12:21:01;8.73;;;2.00;;
26407;SDS011;14583;43.604;1.364;2023-10-31T12:23:27;11.98;;;2.75;;
26407;SDS011;14583;43.604;1.364;2023-10-31T12:25:54;12.18;;;2.13;;
26407;SDS011;14583;43.604;1.364;2023-10-31T12:28:23;8.65;;;2.05;;
26407;SDS011;14583;43.604;1.364;2023-10-31T12:30:52;8.77;;;2.05;;
26407;SDS011;14583;43.604;1.364;2023-10-31T12:33:22;12.68;;;2.35;;
26407;SDS011;14583;43.604;1.364;2023-10-31T12:36:00;8.57;;;1.85;;
26407;SDS011;14583;43.604;1.364;2023-10-31T12:38:27;11.70;;;1.95;;
26407;SDS011;14583;43.604;1.364;2023-10-31T12:40:53;11.00;;;2.00;;
26407;SDS011;14583;43.604;1.364;2023-10-31T12:43:20;6.35;;;1.73;;
26407;SDS011;14583;43.604;1.364;2023-10-31T12:45:46;7.95;;;1.90;;
26407;SDS011;14583;43.604;1.364;2023-10-31T12:48:12;11.00;;;1.85;;
26407;SDS011;14583;43.604;1.364;2023-10-31T12:50:38;8.70;;;1.80;;
26407;SDS011;14583;43.604;1.364;2023-10-31T12:53:07;6.70;;;2.00;;
26407;SDS011;14583;43.604;1.364;2023-10-31T12:55:40;7.38;;;2.00;;
26407;SDS011;14583;43.604;1.364;2023-10-31T12:58:07;7.72;;;1.70;;
26407;SDS011;14583;43.604;1.364;2023-10-31T13:00:39;6.00;;;1.60;;
26407;SDS011;14583;43.604;1.364;2023-10-31T13:03:08;8.65;;;1.70;;
26407;SDS011;14583;43.604;1.364;2023-10-31T13:05:34;5.45;;;1.48;;
26407;SDS011;14583;43.604;1.364;2023-10-31T13:08:01;5.78;;;1.63;;
26407;SDS011;14583;43.604;1.364;2023-10-31T13:10:29;10.27;;;1.90;;
26407;SDS011;14583;43.604;1.364;2023-10-31T13:12:57;6.28;;;1.58;;
26407;SDS011;14583;43.604;1.364;2023-10-31T13:15:23;7.95;;;1.70;;
26407;SDS011;14583;43.604;1.364;2023-10-31T13:17:50;5.97;;;1.58;;
26407;SDS011;14583;43.604;1.364;2023-10-31T13:20:16;8.43;;;1.77;;
26407;SDS011;14583;43.604;1.364;2023-10-31T13:22:46;10.90;;;1.92;;
26407;SDS011;14583;43.604;1.364;2023-10-31T13:25:13;9.23;;;1.42;;
26407;SDS011;14583;43.604;1.364;2023-10-31T13:27:40;6.13;;;1.70;;
26407;SDS011;14583;43.604;1.364;2023-10-31T13:30:12;8.18;;;2.30;;
26407;SDS011;14583;43.604;1.364;2023-10-31T13:32:42;8.23;;;2.22;;
26407;SDS011;14583;43.604;1.364;2023-10-31T13:35:07;7.85;;;1.60;;
26407;SDS011;14583;43.604;1.364;2023-10-31T13:37:37;6.25;;;1.50;;
26407;SDS011;14583;43.604;1.364;2023-10-31T13:40:03;7.43;;;1.90;;
26407;SDS011;14583;43.604;1.364;2023-10-31T13:42:30;4.80;;;1.63;;
26407;SDS011;14583;43.604;1.364;2023-10-31T13:44:55;7.35;;;1.92;;
26407;SDS011;14583;43.604;1.364;2023-10-31T13:47:21;8.75;;;1.80;;
26407;SDS011;14583;43.604;1.364;2023-10-31T13:49:47;8.30;;;2.03;;
26407;SDS011;14583;43.604;1.364;2023-10-31T13:52:13;8.90;;;1.38;;
26407;SDS011;14583;43.604;1.364;2023-10-31T13:54:40;6.68;;;1.70;;
26407;SDS011;14583;43.604;1.364;2023-10-31T13:57:06;5.10;;;1.30;;
26407;SDS011;14583;43.604;1.364;2023-10-31T13:59:31;9.50;;;2.08;;
26407;SDS011;14583;43.604;1.364;2023-10-31T14:01:57;8.27;;;1.85;;
26407;SDS011;14583;43.604;1.364;2023-10-31T14:04:22;8.63;;;1.85;;
26407;SDS011;14583;43.604;1.364;2023-10-31T14:06:48;8.32;;;1.65;;
26407;SDS011;14583;43.604;1.364;2023-10-31T14:09:14;9.85;;;2.33;;
26407;SDS011;14583;43.604;1.364;2023-10-31T14:11:40;7.22;;;2.05;;
26407;SDS011;14583;43.604;1.364;2023-10-31T14:14:07;7.85;;;1.88;;
26407;SDS011;14583;43.604;1.364;2023-10-31T14:16:38;6.43;;;1.50;;
26407;SDS011;14583;43.604;1.364;2023-10-31T14:19:05;6.97;;;2.60;;
26407;SDS011;14583;43.604;1.364;2023-10-31T14:21:32;7.50;;;1.92;;
26407;SDS011;14583;43.604;1.364;2023-10-31T14:23:58;8.07;;;1.88;;
26407;SDS011;14583;43.604;1.364;2023-10-31T14:26:26;5.80;;;1.60;;
26407;SDS011;14583;43.604;1.364;2023-10-31T14:28:52;3.97;;;1.52;;
26407;SDS011;14583;43.604;1.364;2023-10-31T14:31:18;7.38;;;1.90;;
26407;SDS011;14583;43.604;1.364;2023-10-31T14:33:45;7.53;;;2.10;;
26407;SDS011;14583;43.604;1.364;2023-10-31T14:36:11;8.25;;;2.00;;
26407;SDS011;14583;43.604;1.364;2023-10-31T14:38:38;7.72;;;1.98;;
26407;SDS011;14583;43.604;1.364;2023-10-31T14:41:05;6.80;;;1.65;;
26407;SDS011;14583;43.604;1.364;2023-10-31T14:43:32;8.20;;;1.80;;
26407;SDS011;14583;43.604;1.364;2023-10-31T14:45:58;9.52;;;1.85;;
26407;SDS011;14583;43.604;1.364;2023-10-31T14:48:24;6.20;;;1.80;;
26407;SDS011;14583;43.604;1.364;2023-10-31T14:50:50;8.00;;;1.77;;
26407;SDS011;14583;43.604;1.364;2023-10-31T14:53:16;10.80;;;1.90;;